Strona główna
METAR-TAF:

METAR-TAF

Lotnisko :

Port lotniczy Hemavan

Hemavan, Szwecja

Szerokość geograficzna: 65-48-22N, Długość geograficzna: 015-04-58E, wysokość: 458 m

Aktualna obserwacja pogody

Raport powstał 49 minut temu, godzina 10:50 UTC
Wiatr 2 kt z kierunków zmiennych
Temperatura -8°C
Wilgotność 85%
Ciśnienie 996 hPa
Widzialność 10 km lub więcej

METAR: ESUT 191050Z AUTO VRB02KT 9999 NCD M08/M10 Q0996

czas: 12:39 (11:39 UTC)


TAF: brakujący

Obserwacja i prognoza pogody dla ponad 4000 lotnisk (raport METAR i TAF).

Dostępne stacje oznaczono żółtymi i czerwonymi punktami na mapie.

Najedź kursorem aby zobaczyć nazwę stacji.

Kliknij aby zobaczyć obserwacje i prognozy pogody.

Aby zmienić mapę: kliknij na zielony przycisk z czarnym krzyżykiem, aby powiększyć; na zielony przycisk z myślnikiem, aby pomniejszyć; na zielone strzałki, aby przejść do map sąsiednich.


METAR-TAF: